Time;durP1;ratioP1;P1;durP2;ratioP2;P2;SDS_P1;SDS_P2;PMS_P1;PMS_P2;Temp;Humidity;BMP_temperature;BMP_pressure;BME280_temperature;BME280_humidity;BME280_pressure;Samples;Min_cycle;Max_cycle;Signal;HPM_P1;HPM_P2
2023/04/27 00:02:08;;;;;;;11.63;11.23;;;5.80;99.90;;;;;;5137931;27;20452;-68
2023/04/27 00:04:36;;;;;;;11.60;11.20;;;5.80;99.90;;;;;;5141431;27;20574;-67
2023/04/27 00:07:03;;;;;;;11.70;11.30;;;5.70;99.90;;;;;;5145520;27;20527;-67
2023/04/27 00:09:31;;;;;;;11.87;11.47;;;5.60;99.90;;;;;;5140178;27;20464;-67
2023/04/27 00:11:57;;;;;;;11.60;11.20;;;5.50;99.90;;;;;;5144846;27;20463;-67
2023/04/27 00:14:27;;;;;;;11.33;10.93;;;5.50;99.90;;;;;;5139830;27;20462;-67
2023/04/27 00:16:54;;;;;;;11.37;10.97;;;5.40;99.90;;;;;;5140409;27;20486;-67
2023/04/27 00:19:21;;;;;;;11.00;10.60;;;5.40;99.90;;;;;;5133323;27;20527;-67
2023/04/27 00:21:49;;;;;;;11.33;10.93;;;5.30;99.90;;;;;;5142774;27;20471;-68
2023/04/27 00:24:16;;;;;;;11.20;10.80;;;5.20;99.90;;;;;;5149256;27;20459;-67
2023/04/27 00:26:43;;;;;;;10.97;10.57;;;5.20;99.90;;;;;;5135280;27;20496;-67
2023/04/27 00:29:12;;;;;;;10.93;10.53;;;5.20;99.90;;;;;;5144197;27;20510;-67
2023/04/27 00:31:39;;;;;;;10.70;10.30;;;5.20;99.90;;;;;;5141797;27;20467;-67
2023/04/27 00:34:07;;;;;;;10.50;10.10;;;5.20;99.90;;;;;;5141208;27;20451;-67
2023/04/27 00:36:34;;;;;;;10.13;9.80;;;5.10;99.90;;;;;;5139345;27;20463;-67
2023/04/27 00:39:05;;;;;;;10.00;9.70;;;5.00;99.90;;;;;;5149860;27;20458;-67
2023/04/27 00:41:32;;;;;;;10.60;10.20;;;5.00;99.90;;;;;;5135818;27;20458;-67
2023/04/27 00:43:59;;;;;;;10.00;9.70;;;5.00;99.90;;;;;;5136535;27;20882;-67
2023/04/27 00:46:27;;;;;;;10.20;9.80;;;4.90;99.90;;;;;;5141210;27;20524;-67
2023/04/27 00:48:55;;;;;;;10.40;10.00;;;4.80;99.90;;;;;;5139583;27;21236;-67
2023/04/27 00:51:26;;;;;;;9.80;9.50;;;4.80;99.90;;;;;;5142380;27;20508;-67
2023/04/27 00:53:54;;;;;;;9.70;9.40;;;4.80;99.90;;;;;;5149528;27;20455;-67
2023/04/27 00:56:22;;;;;;;9.60;9.30;;;4.80;99.90;;;;;;5142177;27;20538;-67
2023/04/27 00:58:49;;;;;;;9.80;9.50;;;4.80;99.90;;;;;;5146144;27;20485;-67
2023/04/27 01:01:16;;;;;;;9.50;9.20;;;4.90;99.90;;;;;;5130373;27;20461;-67
2023/04/27 01:03:44;;;;;;;9.47;9.17;;;4.80;99.90;;;;;;5138953;27;20522;-67
2023/04/27 01:06:10;;;;;;;9.37;9.07;;;4.80;99.90;;;;;;5140984;27;20560;-67
2023/04/27 01:08:38;;;;;;;10.83;10.40;;;4.70;99.90;;;;;;5148462;27;20556;-68
2023/04/27 01:11:05;;;;;;;9.80;9.50;;;4.70;99.90;;;;;;5141521;27;20471;-67
2023/04/27 01:13:33;;;;;;;11.37;10.53;;;4.70;99.90;;;;;;5149462;27;20485;-67
2023/04/27 01:16:00;;;;;;;10.13;9.80;;;4.60;99.90;;;;;;5135148;27;21114;-68
2023/04/27 01:18:28;;;;;;;9.13;8.83;;;4.50;99.90;;;;;;5140126;27;20449;-67
2023/04/27 01:20:54;;;;;;;9.40;9.10;;;4.40;99.90;;;;;;5145391;27;20886;-67
2023/04/27 01:23:23;;;;;;;9.70;9.40;;;4.20;99.90;;;;;;5138516;27;20466;-67
2023/04/27 01:25:50;;;;;;;9.90;9.60;;;4.20;99.90;;;;;;5139492;27;21135;-67
2023/04/27 01:28:17;;;;;;;9.23;8.93;;;4.20;99.90;;;;;;5147635;27;20504;-67
2023/04/27 01:30:44;;;;;;;9.80;9.50;;;4.10;99.90;;;;;;5145534;27;20451;-67
2023/04/27 01:33:12;;;;;;;9.43;9.13;;;4.20;99.90;;;;;;5149007;27;20473;-67
2023/04/27 01:35:39;;;;;;;9.13;8.83;;;4.20;99.90;;;;;;5141036;27;20550;-67
2023/04/27 01:38:06;;;;;;;10.10;9.70;;;4.10;99.90;;;;;;5134746;27;20462;-67
2023/04/27 01:40:34;;;;;;;9.07;8.77;;;4.00;99.90;;;;;;5139973;27;20876;-67
2023/04/27 01:43:03;;;;;;;9.97;9.63;;;4.00;99.90;;;;;;5145824;27;20486;-66
2023/04/27 01:45:31;;;;;;;9.10;8.80;;;3.90;99.90;;;;;;5153935;27;20782;-67
2023/04/27 01:47:58;;;;;;;9.00;8.70;;;3.80;99.90;;;;;;5154160;27;20539;-67
2023/04/27 01:50:26;;;;;;;8.90;8.60;;;3.80;99.90;;;;;;5151971;27;20463;-67
2023/04/27 01:52:53;;;;;;;8.80;8.50;;;3.80;99.90;;;;;;5139204;27;20448;-67
2023/04/27 01:55:20;;;;;;;8.33;8.03;;;3.80;99.90;;;;;;5142354;27;20455;-67
2023/04/27 01:57:48;;;;;;;9.60;9.20;;;3.80;99.90;;;;;;5148815;27;20459;-67
2023/04/27 02:00:17;;;;;;;8.67;8.37;;;3.70;99.90;;;;;;5143632;27;20455;-66
2023/04/27 02:02:44;;;;;;;8.70;8.40;;;3.70;99.90;;;;;;5151140;27;20463;-66
2023/04/27 02:05:12;;;;;;;7.50;7.30;;;3.70;99.90;;;;;;5139815;27;20479;-67
2023/04/27 02:07:39;;;;;;;11.17;10.50;;;3.70;99.90;;;;;;5143270;27;20495;-66
2023/04/27 02:10:07;;;;;;;8.30;8.00;;;3.70;99.90;;;;;;5152686;27;20532;-67
2023/04/27 02:12:34;;;;;;;8.47;8.03;;;3.70;99.90;;;;;;5138127;27;20471;-67
2023/04/27 02:15:03;;;;;;;9.20;8.33;;;3.70;99.90;;;;;;5145793;27;20470;-67
2023/04/27 02:17:30;;;;;;;10.37;9.87;;;3.80;99.90;;;;;;5145548;27;20483;-68
2023/04/27 02:19:57;;;;;;;7.87;7.47;;;3.80;99.90;;;;;;5138825;27;21022;-68
2023/04/27 02:22:24;;;;;;;8.27;8.00;;;3.70;99.90;;;;;;5148709;27;20466;-67
2023/04/27 02:24:51;;;;;;;7.13;6.93;;;3.80;99.90;;;;;;5145475;27;20460;-67
2023/04/27 02:27:18;;;;;;;9.33;8.90;;;3.80;99.90;;;;;;5145649;27;20533;-68
2023/04/27 02:29:45;;;;;;;9.27;8.67;;;3.70;99.90;;;;;;5137957;27;20456;-67
2023/04/27 02:32:14;;;;;;;10.93;10.23;;;3.80;99.90;;;;;;5151876;27;20818;-67
2023/04/27 02:34:42;;;;;;;8.77;8.40;;;3.80;99.90;;;;;;5139903;27;20483;-68
2023/04/27 02:37:09;;;;;;;8.00;7.70;;;3.70;99.90;;;;;;5145919;27;21001;-67
2023/04/27 02:39:37;;;;;;;10.00;9.47;;;3.70;99.90;;;;;;5146744;27;20610;-67
2023/04/27 02:42:04;;;;;;;7.40;7.20;;;3.80;99.90;;;;;;5150033;27;20516;-68
2023/04/27 02:44:31;;;;;;;7.73;7.53;;;3.80;99.90;;;;;;5137814;27;20485;-68
2023/04/27 02:46:59;;;;;;;9.17;8.77;;;3.80;99.90;;;;;;5151321;27;20483;-67
2023/04/27 02:49:27;;;;;;;7.80;7.53;;;3.80;99.90;;;;;;5137779;27;20463;-67
2023/04/27 02:51:54;;;;;;;7.90;7.63;;;3.80;99.90;;;;;;5142757;27;20451;-68
2023/04/27 02:54:22;;;;;;;8.90;8.33;;;3.80;99.90;;;;;;5142131;27;20876;-68
2023/04/27 02:56:49;;;;;;;8.83;8.20;;;3.80;99.90;;;;;;5144855;27;20798;-67
2023/04/27 02:59:16;;;;;;;8.50;8.20;;;3.80;99.90;;;;;;5146231;27;20455;-67
2023/04/27 03:01:42;;;;;;;8.17;7.87;;;3.80;99.90;;;;;;5149831;27;20957;-67
2023/04/27 03:04:09;;;;;;;9.10;8.63;;;3.80;99.90;;;;;;5146149;27;20619;-68
2023/04/27 03:06:37;;;;;;;9.67;9.17;;;3.80;99.90;;;;;;5142774;27;20456;-67
2023/04/27 03:09:05;;;;;;;8.53;8.13;;;3.80;99.90;;;;;;5143237;27;20475;-67
2023/04/27 03:11:32;;;;;;;8.47;8.17;;;3.70;99.90;;;;;;5150760;27;20901;-68
2023/04/27 03:14:00;;;;;;;8.53;8.23;;;3.70;99.90;;;;;;5137739;27;20458;-67
2023/04/27 03:16:28;;;;;;;7.80;7.60;;;3.60;99.90;;;;;;5139785;27;20490;-67
2023/04/27 03:18:54;;;;;;;9.10;8.80;;;3.50;99.90;;;;;;5139281;27;20467;-67
2023/04/27 03:21:21;;;;;;;8.90;8.60;;;3.50;99.90;;;;;;5135463;27;20464;-68
2023/04/27 03:23:49;;;;;;;8.60;8.30;;;3.40;99.90;;;;;;5143426;27;20451;-68
2023/04/27 03:26:17;;;;;;;8.63;8.33;;;3.30;99.90;;;;;;5144867;27;20455;-67
2023/04/27 03:28:44;;;;;;;8.87;8.57;;;3.20;99.90;;;;;;5143319;27;20594;-68
2023/04/27 03:31:13;;;;;;;8.87;8.57;;;3.20;99.90;;;;;;5147885;27;20461;-68
2023/04/27 03:33:40;;;;;;;8.97;8.67;;;3.10;99.90;;;;;;5143317;27;21010;-68
2023/04/27 03:36:09;;;;;;;8.83;8.53;;;3.00;99.90;;;;;;5146855;27;20471;-67
2023/04/27 03:38:37;;;;;;;9.33;9.03;;;2.90;99.90;;;;;;5136444;27;20452;-68
2023/04/27 03:41:05;;;;;;;9.20;8.90;;;2.90;99.90;;;;;;5149402;27;20459;-66
2023/04/27 03:43:32;;;;;;;8.87;8.57;;;2.70;99.90;;;;;;5139486;27;20529;-66
2023/04/27 03:45:58;;;;;;;9.03;8.73;;;2.60;99.90;;;;;;5147292;27;20455;-68
2023/04/27 03:48:25;;;;;;;9.10;8.80;;;2.60;99.90;;;;;;5140907;27;20488;-66
2023/04/27 03:50:52;;;;;;;12.87;12.00;;;2.50;99.90;;;;;;5147079;27;20475;-66
2023/04/27 03:53:19;;;;;;;9.07;8.77;;;2.40;99.90;;;;;;5138185;27;20468;-66
2023/04/27 03:55:47;;;;;;;9.00;8.70;;;2.40;99.90;;;;;;5141466;27;20459;-67
2023/04/27 03:58:16;;;;;;;9.33;9.03;;;2.30;99.90;;;;;;5150263;27;20463;-67
2023/04/27 04:00:45;;;;;;;10.23;9.83;;;2.30;99.90;;;;;;5142378;27;20451;-67
2023/04/27 04:03:13;;;;;;;9.30;9.00;;;2.30;99.90;;;;;;5150101;27;20474;-66
2023/04/27 04:05:41;;;;;;;9.30;9.00;;;2.30;99.90;;;;;;5131544;27;20498;-66
2023/04/27 04:08:09;;;;;;;9.23;8.93;;;2.30;99.90;;;;;;5147210;27;20499;-66
2023/04/27 04:10:35;;;;;;;9.70;9.40;;;2.20;99.90;;;;;;5142818;27;20470;-66
2023/04/27 04:13:02;;;;;;;9.17;8.87;;;2.10;99.90;;;;;;5142410;27;20489;-66
2023/04/27 04:15:31;;;;;;;9.33;9.03;;;2.10;99.90;;;;;;5142035;27;20463;-66
2023/04/27 04:17:57;;;;;;;9.90;9.60;;;2.00;99.90;;;;;;5133155;27;20575;-66
2023/04/27 04:20:24;;;;;;;10.00;9.70;;;2.00;99.90;;;;;;5143154;27;20471;-66
2023/04/27 04:22:51;;;;;;;9.53;9.23;;;2.00;99.90;;;;;;5147609;27;20483;-66
2023/04/27 04:25:19;;;;;;;9.60;9.30;;;2.00;99.90;;;;;;5138321;27;20463;-66
2023/04/27 04:27:46;;;;;;;9.40;9.10;;;2.10;99.90;;;;;;5149539;27;20471;-66
2023/04/27 04:30:14;;;;;;;9.57;9.27;;;2.10;99.90;;;;;;5136712;27;20452;-66
2023/04/27 04:32:43;;;;;;;10.23;9.83;;;2.10;99.90;;;;;;5135343;27;20532;-65
2023/04/27 04:35:11;;;;;;;9.33;9.03;;;2.10;99.90;;;;;;5144103;27;20992;-66
2023/04/27 04:37:39;;;;;;;9.80;9.50;;;2.00;99.90;;;;;;5145552;27;20464;-66
2023/04/27 04:40:09;;;;;;;9.67;9.37;;;2.00;99.90;;;;;;5138808;27;20800;-66
2023/04/27 04:42:37;;;;;;;9.90;9.60;;;2.00;99.90;;;;;;5149684;27;20467;-67
2023/04/27 04:45:06;;;;;;;9.80;9.50;;;2.00;99.90;;;;;;5132343;27;20455;-67
2023/04/27 04:47:33;;;;;;;9.67;9.37;;;2.00;99.90;;;;;;5144524;27;20487;-66
2023/04/27 04:50:03;;;;;;;9.97;9.63;;;2.00;99.90;;;;;;5149367;27;20874;-65
2023/04/27 04:52:30;;;;;;;10.90;10.50;;;2.20;99.90;;;;;;5139767;27;20866;-66
2023/04/27 04:54:57;;;;;;;10.53;10.13;;;2.20;99.90;;;;;;5140010;27;20459;-66
2023/04/27 04:57:24;;;;;;;10.60;10.20;;;2.30;99.90;;;;;;5149195;27;20831;-66
2023/04/27 04:59:52;;;;;;;10.90;10.50;;;2.30;99.90;;;;;;5145225;27;20462;-66
2023/04/27 05:02:19;;;;;;;10.90;10.50;;;2.30;99.90;;;;;;5141198;27;20460;-66
2023/04/27 05:04:46;;;;;;;13.87;12.77;;;2.40;99.90;;;;;;5144398;27;20570;-67
2023/04/27 05:07:14;;;;;;;11.03;10.63;;;2.50;99.90;;;;;;5145941;27;20447;-65
2023/04/27 05:09:41;;;;;;;10.57;10.17;;;2.70;99.90;;;;;;5132468;27;20455;-65
2023/04/27 05:12:08;;;;;;;10.77;10.37;;;2.70;99.90;;;;;;5138568;27;20462;-66
2023/04/27 05:14:35;;;;;;;10.70;10.30;;;2.80;99.90;;;;;;5126277;27;20508;-66
2023/04/27 05:17:02;;;;;;;10.73;10.33;;;2.90;99.90;;;;;;5141745;27;20485;-66
2023/04/27 05:19:30;;;;;;;11.77;11.17;;;2.90;99.90;;;;;;5138283;27;20460;-66
2023/04/27 05:21:58;;;;;;;12.03;11.33;;;3.10;99.90;;;;;;5138949;27;20540;-65
2023/04/27 05:24:26;;;;;;;10.50;10.00;;;3.20;99.90;;;;;;5141091;27;20459;-67
2023/04/27 05:26:53;;;;;;;10.37;9.97;;;3.30;99.90;;;;;;5143058;27;20458;-67
2023/04/27 05:29:21;;;;;;;9.47;9.17;;;3.40;99.90;;;;;;5135656;27;20488;-67
2023/04/27 05:31:48;;;;;;;9.80;9.50;;;3.40;99.90;;;;;;5142418;27;20783;-67
2023/04/27 05:34:15;;;;;;;10.83;10.43;;;3.40;99.90;;;;;;5141606;27;20470;-66
2023/04/27 05:36:41;;;;;;;9.60;9.30;;;3.40;99.90;;;;;;5136505;27;20467;-67
2023/04/27 05:39:08;;;;;;;9.97;9.67;;;3.50;99.90;;;;;;5144118;27;20451;-67
2023/04/27 05:41:36;;;;;;;13.57;12.53;;;3.60;99.90;;;;;;5141328;27;20482;-66
2023/04/27 05:44:04;;;;;;;9.40;9.10;;;3.80;99.90;;;;;;5136477;27;20783;-67
2023/04/27 05:46:31;;;;;;;9.60;9.30;;;4.00;99.90;;;;;;5141352;27;20826;-66
2023/04/27 05:48:57;;;;;;;9.60;9.20;;;4.10;99.90;;;;;;5138518;27;20568;-66
2023/04/27 05:51:24;;;;;;;9.20;8.90;;;4.40;99.90;;;;;;5140025;27;20733;-66
2023/04/27 05:53:53;;;;;;;9.53;9.23;;;4.50;99.90;;;;;;5148776;27;20462;-67
2023/04/27 05:56:21;;;;;;;10.37;9.97;;;4.70;99.90;;;;;;5144997;27;20457;-67
2023/04/27 05:58:50;;;;;;;9.53;9.20;;;4.90;99.90;;;;;;5144332;27;20452;-67
2023/04/27 06:01:17;;;;;;;10.63;10.13;;;5.00;99.90;;;;;;5142680;27;20501;-67
2023/04/27 06:03:44;;;;;;;10.37;9.83;;;5.00;99.90;;;;;;5144933;27;20475;-67
2023/04/27 06:06:11;;;;;;;8.80;8.50;;;5.20;99.90;;;;;;5143315;27;20462;-67
2023/04/27 06:08:39;;;;;;;9.20;8.90;;;5.30;99.90;;;;;;5136793;27;20830;-68
2023/04/27 06:11:06;;;;;;;9.63;9.33;;;5.30;99.90;;;;;;5131646;27;20470;-68
2023/04/27 06:13:33;;;;;;;10.20;9.80;;;5.50;99.90;;;;;;5142866;27;20543;-67
2023/04/27 06:16:01;;;;;;;10.60;10.20;;;5.60;99.90;;;;;;5135429;27;20485;-66
2023/04/27 06:18:28;;;;;;;10.57;10.17;;;5.70;99.90;;;;;;5141152;27;20584;-66
2023/04/27 06:21:00;;;;;;;10.60;10.20;;;5.90;99.90;;;;;;5143639;27;20483;-67
2023/04/27 06:23:27;;;;;;;13.63;13.00;;;5.90;99.90;;;;;;5150853;27;20451;-66
2023/04/27 06:25:54;;;;;;;12.23;11.73;;;6.10;99.90;;;;;;5141266;27;20465;-67
2023/04/27 06:28:21;;;;;;;13.50;12.80;;;6.20;99.90;;;;;;5138753;27;20494;-66
2023/04/27 06:30:47;;;;;;;12.37;11.87;;;6.40;99.90;;;;;;5143096;27;20546;-66
2023/04/27 06:33:17;;;;;;;13.53;12.83;;;6.60;99.90;;;;;;5135959;27;20470;-67
2023/04/27 06:35:45;;;;;;;16.07;15.17;;;6.70;99.90;;;;;;5140932;27;20874;-66
2023/04/27 06:38:12;;;;;;;13.03;12.53;;;6.80;99.90;;;;;;5138057;27;20630;-67
2023/04/27 06:40:39;;;;;;;12.67;12.17;;;6.90;99.90;;;;;;5133523;27;20538;-67
2023/04/27 06:43:06;;;;;;;13.30;12.80;;;7.00;99.90;;;;;;5144756;27;20492;-67
2023/04/27 06:45:33;;;;;;;13.43;12.90;;;7.00;99.90;;;;;;5140435;27;20494;-67
2023/04/27 06:48:01;;;;;;;13.20;12.60;;;7.20;99.90;;;;;;5136288;27;20519;-67
2023/04/27 06:50:29;;;;;;;14.40;13.70;;;7.50;99.90;;;;;;5138110;27;20449;-67
2023/04/27 06:52:57;;;;;;;14.30;13.60;;;7.80;99.90;;;;;;5137847;27;20451;-67
2023/04/27 06:55:23;;;;;;;16.37;15.47;;;8.00;99.90;;;;;;5146777;27;20864;-67
2023/04/27 06:57:51;;;;;;;14.43;13.83;;;8.10;99.90;;;;;;5139961;27;20460;-67
2023/04/27 07:00:20;;;;;;;14.27;13.67;;;8.20;99.90;;;;;;5139761;27;20464;-68
2023/04/27 07:02:46;;;;;;;15.20;14.40;;;8.30;99.90;;;;;;5137885;27;20495;-67
2023/04/27 07:05:13;;;;;;;28.73;16.70;;;8.60;99.90;;;;;;5132833;27;20928;-67
2023/04/27 07:07:42;;;;;;;16.17;15.37;;;8.60;99.90;;;;;;5143129;27;20575;-66
2023/04/27 07:10:10;;;;;;;14.37;13.77;;;8.70;99.90;;;;;;5137996;27;20524;-66
2023/04/27 07:12:37;;;;;;;17.63;16.63;;;9.00;99.90;;;;;;5129305;27;20584;-67
2023/04/27 07:15:05;;;;;;;16.50;15.60;;;9.20;99.90;;;;;;5143811;27;20456;-67
2023/04/27 07:17:32;;;;;;;17.00;16.10;;;9.10;99.90;;;;;;5144705;27;20475;-67
2023/04/27 07:19:59;;;;;;;17.70;16.60;;;9.30;99.90;;;;;;5131294;27;20541;-67
2023/04/27 07:22:27;;;;;;;15.93;15.20;;;9.50;99.90;;;;;;5138265;27;20443;-67
2023/04/27 07:24:55;;;;;;;16.27;15.27;;;9.70;99.90;;;;;;5137239;27;20473;-68
2023/04/27 07:27:23;;;;;;;16.10;15.10;;;9.80;99.90;;;;;;5135821;27;20942;-68
2023/04/27 07:29:50;;;;;;;16.10;15.20;;;9.80;99.90;;;;;;5140542;27;20803;-67
2023/04/27 07:32:16;;;;;;;15.17;14.57;;;10.00;99.90;;;;;;5114842;27;20508;-68
2023/04/27 07:34:43;;;;;;;16.10;15.30;;;10.10;99.90;;;;;;5146286;27;20459;-67
2023/04/27 07:37:10;;;;;;;16.07;15.37;;;10.00;99.90;;;;;;5136123;27;20494;-68
2023/04/27 07:39:37;;;;;;;17.20;16.17;;;10.10;99.90;;;;;;5138693;27;20533;-68
2023/04/27 07:42:06;;;;;;;17.63;16.70;;;10.30;99.90;;;;;;5140622;27;20460;-68
2023/04/27 07:44:32;;;;;;;16.57;15.67;;;10.30;99.90;;;;;;5143431;27;20969;-67
2023/04/27 07:47:03;;;;;;;16.30;15.57;;;10.40;99.90;;;;;;5146781;27;20862;-68
2023/04/27 07:49:31;;;;;;;19.57;18.07;;;10.60;99.90;;;;;;5136123;27;20603;-68
2023/04/27 07:51:57;;;;;;;15.90;15.20;;;10.70;99.90;;;;;;5141022;27;20578;-68
2023/04/27 07:54:25;;;;;;;17.03;16.17;;;10.80;99.90;;;;;;5144338;27;20455;-67
2023/04/27 07:56:52;;;;;;;18.80;17.47;;;11.00;99.90;;;;;;5136806;27;20450;-67
2023/04/27 07:59:22;;;;;;;17.27;16.30;;;10.90;99.90;;;;;;5140154;27;20466;-68
2023/04/27 08:01:49;;;;;;;17.23;16.23;;;10.70;99.90;;;;;;5140268;27;20463;-68
2023/04/27 08:04:15;;;;;;;17.47;16.57;;;10.50;99.90;;;;;;5136903;27;20515;-68
2023/04/27 08:06:44;;;;;;;17.83;16.70;;;10.50;99.90;;;;;;5142480;27;20451;-68
2023/04/27 08:09:12;;;;;;;15.80;15.10;;;10.40;99.90;;;;;;5141330;27;20843;-68
2023/04/27 08:11:38;;;;;;;17.10;16.30;;;10.50;99.90;;;;;;5145988;27;20998;-68
2023/04/27 08:14:07;;;;;;;17.43;16.53;;;10.70;99.90;;;;;;5140998;27;20460;-67
2023/04/27 08:16:36;;;;;;;17.80;16.90;;;11.00;99.90;;;;;;5144268;27;21036;-67
2023/04/27 08:19:03;;;;;;;18.60;17.30;;;11.20;99.90;;;;;;5136668;27;20952;-68
2023/04/27 08:21:31;;;;;;;17.77;16.87;;;11.20;99.90;;;;;;5137118;27;20490;-67
2023/04/27 08:23:58;;;;;;;17.00;16.20;;;11.40;99.90;;;;;;5138012;27;20469;-68
2023/04/27 08:26:25;;;;;;;19.33;18.07;;;11.60;99.90;;;;;;5142714;27;20455;-68
2023/04/27 08:28:52;;;;;;;17.90;16.90;;;11.60;99.90;;;;;;5133667;27;20484;-68
2023/04/27 08:31:20;;;;;;;16.53;15.67;;;11.40;99.90;;;;;;5143947;27;20561;-68
2023/04/27 08:33:49;;;;;;;16.90;16.10;;;11.70;99.90;;;;;;5145604;27;20975;-68
2023/04/27 08:36:16;;;;;;;17.93;16.70;;;11.80;99.90;;;;;;5140965;27;21230;-67
2023/04/27 08:38:43;;;;;;;16.33;15.63;;;11.70;99.90;;;;;;5143851;27;20467;-67
2023/04/27 08:41:10;;;;;;;16.93;16.23;;;11.70;99.90;;;;;;5141503;27;20466;-67
2023/04/27 08:43:37;;;;;;;17.33;16.53;;;12.40;99.90;;;;;;5133003;27;20970;-68
2023/04/27 08:46:04;;;;;;;16.20;15.50;;;13.20;99.90;;;;;;5140109;27;20492;-67
2023/04/27 08:48:30;;;;;;;17.17;16.40;;;14.40;99.90;;;;;;5144287;27;21029;-67
2023/04/27 08:51:01;;;;;;;16.50;15.73;;;15.30;99.90;;;;;;5145500;27;20448;-68
2023/04/27 08:53:29;;;;;;;15.40;14.80;;;15.90;99.90;;;;;;5142978;27;20467;-67
2023/04/27 08:55:56;;;;;;;17.10;16.20;;;16.10;99.90;;;;;;5138642;27;20452;-68
2023/04/27 08:58:36;;;;;;;15.50;14.80;;;16.20;97.80;;;;;;5144664;27;20531;-67
2023/04/27 09:01:06;;;;;;;15.93;15.23;;;16.60;95.40;;;;;;5137389;27;20538;-68
2023/04/27 09:03:34;;;;;;;16.00;15.30;;;16.30;92.50;;;;;;5140528;27;20530;-67
2023/04/27 09:06:03;;;;;;;17.27;16.07;;;16.40;94.70;;;;;;5143455;27;20922;-68
2023/04/27 09:08:41;;;;;;;15.40;14.80;;;17.60;90.90;;;;;;5139784;27;20479;-67
2023/04/27 09:11:08;;;;;;;16.80;16.00;;;17.80;91.40;;;;;;5141425;27;21480;-68
2023/04/27 09:13:35;;;;;;;16.10;15.40;;;17.40;88.50;;;;;;5135348;27;20455;-68
2023/04/27 09:16:02;;;;;;;16.00;15.30;;;17.80;83.80;;;;;;5145053;27;20553;-67
2023/04/27 09:18:32;;;;;;;17.20;16.20;;;17.50;84.50;;;;;;5146717;27;20465;-68
2023/04/27 09:20:59;;;;;;;16.73;15.93;;;16.90;82.40;;;;;;5142042;27;20452;-68
2023/04/27 09:23:28;;;;;;;16.23;15.23;;;16.30;83.10;;;;;;5140257;27;20944;-68
2023/04/27 09:25:56;;;;;;;16.27;15.47;;;16.50;82.80;;;;;;5137134;27;20639;-68
2023/04/27 09:28:23;;;;;;;17.37;16.43;;;16.90;83.40;;;;;;5143747;27;20447;-68
2023/04/27 09:30:54;;;;;;;15.83;15.17;;;17.30;80.60;;;;;;5142043;27;21732;-68
2023/04/27 09:33:25;;;;;;;15.93;15.13;;;17.10;80.70;;;;;;5139904;27;20459;-68
2023/04/27 09:35:53;;;;;;;18.67;17.37;;;17.10;80.10;;;;;;5138993;27;20447;-68
2023/04/27 09:38:21;;;;;;;16.50;15.70;;;17.00;81.80;;;;;;5150626;27;20463;-68
2023/04/27 09:40:52;;;;;;;17.03;16.20;;;16.30;81.20;;;;;;5145044;27;20526;-67
2023/04/27 09:43:19;;;;;;;16.00;15.30;;;16.60;80.60;;;;;;5139685;27;20497;-68
2023/04/27 09:45:47;;;;;;;16.87;15.83;;;16.60;80.10;;;;;;5146751;27;20451;-69
2023/04/27 09:48:14;;;;;;;17.43;16.47;;;17.20;79.80;;;;;;5143399;27;20447;-68
2023/04/27 09:50:45;;;;;;;16.17;15.47;;;17.20;76.50;;;;;;5139201;27;21004;-68
2023/04/27 09:53:13;;;;;;;15.07;14.47;;;17.10;75.80;;;;;;5143141;27;20459;-68
2023/04/27 09:55:43;;;;;;;15.87;15.17;;;17.90;75.70;;;;;;5142588;27;20551;-67
2023/04/27 09:58:33;;;;;;;15.57;14.87;;;18.70;74.50;;;;;;5141947;27;20463;-68
2023/04/27 10:01:05;;;;;;;16.80;16.00;;;18.30;74.00;;;;;;5143633;27;20821;-68
2023/04/27 10:03:43;;;;;;;15.70;15.00;;;18.90;71.80;;;;;;5138515;27;20550;-68
2023/04/27 10:06:58;;;;;;;14.93;14.33;;;18.90;68.20;;;;;;5136562;27;20876;-68
2023/04/27 10:09:29;;;;;;;16.77;15.97;;;19.10;73.90;;;;;;5143950;27;20678;-68
2023/04/27 10:11:56;;;;;;;15.60;14.90;;;19.10;66.90;;;;;;5143714;27;20467;-68
2023/04/27 10:14:25;;;;;;;15.17;14.57;;;19.70;68.10;;;;;;5148014;27;20755;-68
2023/04/27 10:16:54;;;;;;;15.03;14.43;;;19.40;64.10;;;;;;5143472;27;20994;-68
2023/04/27 10:19:22;;;;;;;14.90;14.30;;;19.40;63.20;;;;;;5137881;27;20799;-68
2023/04/27 10:21:53;;;;;;;16.90;15.90;;;19.40;61.50;;;;;;5142704;27;21144;-68
2023/04/27 10:24:34;;;;;;;16.53;15.80;;;19.20;63.00;;;;;;5139469;27;20463;-68
2023/04/27 10:27:04;;;;;;;15.23;14.63;;;19.20;67.10;;;;;;5138859;27;20459;-68
2023/04/27 10:29:40;;;;;;;17.40;15.57;;;19.30;65.30;;;;;;5144096;27;20504;-68
2023/04/27 10:32:09;;;;;;;14.90;14.30;;;19.20;62.60;;;;;;5129565;27;21019;-68
2023/04/27 10:34:37;;;;;;;15.60;14.90;;;19.70;63.80;;;;;;5136123;27;20472;-69
2023/04/27 10:37:08;;;;;;;33.13;15.10;;;19.90;60.40;;;;;;5140430;27;20511;-68
2023/04/27 10:39:37;;;;;;;15.60;14.90;;;20.40;65.60;;;;;;5144094;27;20466;-68
2023/04/27 10:42:04;;;;;;;15.93;15.23;;;20.90;61.80;;;;;;5147405;27;20896;-68
2023/04/27 10:44:33;;;;;;;14.97;14.37;;;20.50;58.50;;;;;;5138295;27;20440;-68
2023/04/27 10:47:12;;;;;;;15.33;14.70;;;21.20;59.20;;;;;;5141684;27;20459;-68
2023/04/27 10:49:39;;;;;;;18.17;17.13;;;21.20;58.40;;;;;;5146178;27;20482;-68
2023/04/27 10:52:07;;;;;;;15.50;14.80;;;20.90;56.40;;;;;;5145769;27;20490;-68
2023/04/27 10:54:35;;;;;;;15.20;14.50;;;21.30;56.90;;;;;;5139651;27;20460;-69
2023/04/27 10:57:04;;;;;;;16.20;15.50;;;21.90;57.80;;;;;;5136452;27;20523;-69
2023/04/27 10:59:31;;;;;;;15.70;15.00;;;21.90;55.80;;;;;;5145013;27;20518;-68
2023/04/27 11:01:57;;;;;;;15.60;14.90;;;21.30;55.40;;;;;;5143470;27;20546;-68
2023/04/27 11:04:37;;;;;;;15.50;14.80;;;21.30;56.10;;;;;;5139780;27;21013;-69
2023/04/27 11:07:04;;;;;;;15.53;14.87;;;21.40;54.10;;;;;;5139455;27;20466;-68
2023/04/27 11:09:32;;;;;;;15.40;14.80;;;21.60;52.60;;;;;;5144277;27;20479;-68
2023/04/27 11:11:59;;;;;;;16.10;15.40;;;22.10;54.30;;;;;;5146430;27;20462;-69
2023/04/27 11:14:26;;;;;;;16.37;15.67;;;22.60;54.10;;;;;;5141384;27;20668;-68
2023/04/27 11:16:53;;;;;;;16.87;16.17;;;22.90;50.80;;;;;;5132074;27;20491;-69
2023/04/27 11:19:20;;;;;;;15.80;15.10;;;23.00;49.60;;;;;;5137773;27;20460;-68
2023/04/27 11:21:49;;;;;;;16.03;15.13;;;22.10;48.70;;;;;;5134805;27;20546;-69
2023/04/27 11:24:16;;;;;;;16.27;15.57;;;22.00;51.50;;;;;;5139698;27;20467;-69
2023/04/27 11:26:43;;;;;;;15.10;14.50;;;22.40;50.90;;;;;;5131142;27;20981;-69
2023/04/27 11:29:12;;;;;;;15.63;14.97;;;22.60;52.00;;;;;;5140753;27;20995;-68
2023/04/27 11:31:46;;;;;;;16.13;15.43;;;22.10;51.30;;;;;;5136943;27;20502;-69
2023/04/27 11:34:16;;;;;;;15.80;15.10;;;21.80;50.70;;;;;;5139511;27;20984;-68
2023/04/27 11:36:43;;;;;;;16.53;15.80;;;22.20;52.10;;;;;;5140597;27;20550;-69
2023/04/27 11:39:20;;;;;;;16.47;15.67;;;23.20;50.70;;;;;;5144070;27;20452;-69
2023/04/27 11:41:47;;;;;;;17.90;16.90;;;22.90;50.50;;;;;;5130193;27;20876;-69
2023/04/27 11:44:15;;;;;;;14.90;14.30;;;22.70;49.20;;;;;;5131912;27;20464;-68
2023/04/27 11:46:44;;;;;;;20.63;19.53;;;23.10;50.10;;;;;;5137879;27;20539;-68
2023/04/27 11:49:14;;;;;;;16.00;15.30;;;23.20;51.40;;;;;;5134608;27;20469;-68
2023/04/27 11:51:43;;;;;;;17.03;16.07;;;23.40;51.00;;;;;;5140845;27;20463;-69
2023/04/27 11:54:10;;;;;;;15.30;14.70;;;22.80;49.80;;;;;;5144849;27;21031;-68
2023/04/27 11:56:40;;;;;;;16.53;15.73;;;23.40;48.30;;;;;;5137881;27;20485;-69
2023/04/27 11:59:18;;;;;;;16.57;15.70;;;23.30;50.00;;;;;;5143649;27;20789;-69
2023/04/27 12:01:45;;;;;;;15.50;14.87;;;23.60;47.20;;;;;;5136384;27;20468;-69
2023/04/27 12:04:12;;;;;;;15.20;14.60;;;23.80;48.20;;;;;;5140409;27;20485;-67
2023/04/27 12:06:39;;;;;;;15.67;14.97;;;24.70;46.60;;;;;;5147084;27;20452;-67
2023/04/27 12:09:06;;;;;;;18.17;17.27;;;25.10;46.20;;;;;;5134949;27;20551;-67
2023/04/27 12:11:34;;;;;;;15.70;15.00;;;24.60;45.40;;;;;;5143281;27;20849;-69
2023/04/27 12:14:03;;;;;;;14.67;14.07;;;23.50;45.10;;;;;;5143000;27;20526;-69
2023/04/27 12:16:31;;;;;;;16.47;15.77;;;23.80;46.60;;;;;;5140195;27;21015;-69
2023/04/27 12:18:58;;;;;;;16.67;15.87;;;24.40;46.20;;;;;;5145337;27;20875;-69
2023/04/27 12:21:25;;;;;;;19.37;18.07;;;24.10;46.20;;;;;;5135424;27;20468;-69
2023/04/27 12:23:51;;;;;;;15.77;15.07;;;23.50;46.50;;;;;;5145658;27;20455;-69
2023/04/27 12:26:19;;;;;;;15.63;14.83;;;22.40;46.60;;;;;;5129192;27;20471;-69
2023/04/27 12:28:45;;;;;;;15.07;14.47;;;23.40;46.50;;;;;;5133583;27;20459;-69
2023/04/27 12:31:17;;;;;;;16.20;15.50;;;24.40;46.00;;;;;;5139638;27;20491;-69
2023/04/27 12:33:45;;;;;;;17.27;16.27;;;24.90;44.70;;;;;;5136296;27;20509;-69
2023/04/27 12:36:12;;;;;;;15.93;15.13;;;24.50;43.70;;;;;;5133427;27;20447;-69
2023/04/27 12:38:39;;;;;;;14.80;14.20;;;24.20;44.40;;;;;;5136832;27;20467;-69
2023/04/27 12:41:05;;;;;;;14.70;14.10;;;23.90;44.60;;;;;;5136363;27;20466;-69
2023/04/27 12:43:34;;;;;;;15.20;14.50;;;23.90;46.00;;;;;;5137780;27;20528;-68
2023/04/27 12:46:01;;;;;;;15.83;14.43;;;23.80;45.40;;;;;;5136469;27;21013;-69